This is the latest recevied weather packets stored in our database for station/object JF2ZGN-13. If no packets are shown the sender has not sent any weather packets the latest 10 day(s).
| Time | Temp. | Humidity | Pressure | Rain* | Wind** | Luminosity | Snow |
|---|---|---|---|---|---|---|---|
| 1787717243 | 27.22° C | 53% | 909.5 hPa | 0 mm | - | - | - |
| 1787716642 | 26.67° C | 55% | 909.4 hPa | 0 mm | - | - | - |
| 1787716041 | 26.11° C | 55% | 909.4 hPa | 0 mm | - | - | - |
| 1787715442 | 25.56° C | 57% | 909.5 hPa | 0 mm | - | - | - |
| 1787714841 | 25.56° C | 57% | 909.6 hPa | 0 mm | - | - | - |
| 1787713640 | 26.67° C | 60% | 909.8 hPa | 0 mm | - | - | - |
| 1787713039 | 26.67° C | 61% | 909.7 hPa | 0 mm | - | - | - |
| 1787712439 | 26.67° C | 64% | 909.9 hPa | 0 mm | - | - | - |
| 1787711838 | 26.11° C | 64% | 910 hPa | 0 mm | - | - | - |
| 1787711238 | 26.11° C | 67% | 910 hPa | 0 mm | - | - | - |
| 1787710637 | 25.56° C | 69% | 909.9 hPa | 0 mm | - | - | - |
| 1787710037 | 25.56° C | 69% | 910 hPa | 0 mm | - | - | - |
| 1787709437 | 26.11° C | 66% | 910.4 hPa | 0 mm | - | - | - |
| 1787708837 | 25.56° C | 62% | 910.2 hPa | 0 mm | - | - | - |
| 1787708236 | 25.56° C | 65% | 910.2 hPa | 0 mm | - | - | - |
| 1787707635 | 25.56° C | 63% | 910.1 hPa | 0 mm | - | - | - |
| 1787707035 | 25.56° C | 69% | 910.1 hPa | 0 mm | - | - | - |
| 1787706434 | 25° C | 69% | 910.2 hPa | 0 mm | - | - | - |
| 1787705834 | 24.44° C | 67% | 909.9 hPa | 0 mm | - | - | - |
| 1787705233 | 25° C | 67% | 910.1 hPa | 0 mm | - | - | - |
| 1787704633 | 25° C | 65% | 910.2 hPa | 0 mm | - | - | - |
| 1787704033 | 25° C | 65% | 910.1 hPa | 0 mm | - | - | - |
| 1787703432 | 24.44° C | 64% | 909.9 hPa | 0 mm | - | - | - |
| 1787702831 | 24.44° C | 65% | 910 hPa | 0 mm | - | - | - |
| 1787702231 | 23.89° C | 66% | 909.9 hPa | 0 mm | - | - | - |
* Rain since midnight (hover to see other rain measurements)
** Current wind speed in m/s (hover to see current wind gust speed)